Ana Sayfa
METAR-TAF:

METAR-TAF

Havaalanları :

Stafford Regional Airport

Stafford, Virginia, Amerika Birleşik Devletleri

Enlem: 38-23-53N, Boylam: 077-27-19W, yükseklik: 65 m

Güncel hava durumu gözlemi

Rapor saat 18:15 UTC de 22 dakika önce yapıldı.
Rüzgar kuzeybatıdan 7 kt
Sıcaklık 7°C
Nem 22%
Basınç 1024 hPa
Görüş mesafesi: 16.1 km
Açık gökyüzü

METAR: KRMN 071815Z AUTO 32007KT 10SM CLR 07/M13 A3025 RMK AO2 T00681133

Saat: 13:37 (18:37 UTC)


TAF: eksik

4.000'den fazla havaalanı için hava durumu gözlemleri ve tahminleri (METAR ve TAF raporları).

Kullanılabilir istasyonlar harita üzerinde sarı ve kırmızı noktalarla gösterilir.

İstasyonun adını görmek için fareyi noktanın üzerinde gezdirin.

Sonrasında hava gözlem ve tahminlerini görmek için tıklayın.

Haritayı değiştirmek için: yaklaştırmak için siyah artı işaretli yeşil düğmeye ve uzaklaştırmak için de eksi işaretli düğmeye hızla tıklayın; bitişik haritalar için yeşil okları kullanın.


METAR-TAF: